sensor_id;sensor_type;location;lat;lon;timestamp;temperature;humidity
12682;DHT22;6405;59.208;18.216;2023-05-20T00:02:04;3.20;99.90
12682;DHT22;6405;59.208;18.216;2023-05-20T00:04:30;3.20;99.90
12682;DHT22;6405;59.208;18.216;2023-05-20T00:06:56;3.20;99.90
12682;DHT22;6405;59.208;18.216;2023-05-20T00:09:21;3.20;99.90
12682;DHT22;6405;59.208;18.216;2023-05-20T00:11:47;3.20;99.90
12682;DHT22;6405;59.208;18.216;2023-05-20T00:14:13;3.20;99.90
12682;DHT22;6405;59.208;18.216;2023-05-20T00:16:38;3.10;99.90
12682;DHT22;6405;59.208;18.216;2023-05-20T00:19:04;3.10;99.90
12682;DHT22;6405;59.208;18.216;2023-05-20T00:21:30;3.10;99.90
12682;DHT22;6405;59.208;18.216;2023-05-20T00:23:55;3.00;99.90
12682;DHT22;6405;59.208;18.216;2023-05-20T00:26:21;3.00;99.90
12682;DHT22;6405;59.208;18.216;2023-05-20T00:28:47;2.90;99.90
12682;DHT22;6405;59.208;18.216;2023-05-20T00:31:12;2.90;99.90
12682;DHT22;6405;59.208;18.216;2023-05-20T00:33:39;2.90;99.90
12682;DHT22;6405;59.208;18.216;2023-05-20T00:36:05;2.90;99.90
12682;DHT22;6405;59.208;18.216;2023-05-20T00:38:32;2.90;99.90
12682;DHT22;6405;59.208;18.216;2023-05-20T00:40:58;2.90;99.90
12682;DHT22;6405;59.208;18.216;2023-05-20T00:43:23;3.00;99.90
12682;DHT22;6405;59.208;18.216;2023-05-20T00:45:52;2.80;99.90
12682;DHT22;6405;59.208;18.216;2023-05-20T00:48:18;2.80;99.90
12682;DHT22;6405;59.208;18.216;2023-05-20T00:50:46;2.80;99.90
12682;DHT22;6405;59.208;18.216;2023-05-20T00:53:13;2.80;99.90
12682;DHT22;6405;59.208;18.216;2023-05-20T00:55:41;2.70;99.90
12682;DHT22;6405;59.208;18.216;2023-05-20T00:58:07;2.70;99.90
12682;DHT22;6405;59.208;18.216;2023-05-20T01:00:32;2.70;99.90
12682;DHT22;6405;59.208;18.216;2023-05-20T01:02:58;2.70;99.90
12682;DHT22;6405;59.208;18.216;2023-05-20T01:05:25;2.60;99.90
12682;DHT22;6405;59.208;18.216;2023-05-20T01:07:50;2.60;99.90
12682;DHT22;6405;59.208;18.216;2023-05-20T01:10:16;2.60;99.90
12682;DHT22;6405;59.208;18.216;2023-05-20T01:12:47;2.60;99.90
12682;DHT22;6405;59.208;18.216;2023-05-20T01:15:14;2.60;99.90
12682;DHT22;6405;59.208;18.216;2023-05-20T01:17:43;2.60;99.90
12682;DHT22;6405;59.208;18.216;2023-05-20T01:20:12;2.60;99.90
12682;DHT22;6405;59.208;18.216;2023-05-20T01:22:55;2.60;99.90
12682;DHT22;6405;59.208;18.216;2023-05-20T01:25:21;2.50;99.90
12682;DHT22;6405;59.208;18.216;2023-05-20T01:27:48;2.60;99.90
12682;DHT22;6405;59.208;18.216;2023-05-20T01:30:15;2.50;99.90
12682;DHT22;6405;59.208;18.216;2023-05-20T01:32:46;2.50;99.90
12682;DHT22;6405;59.208;18.216;2023-05-20T01:35:13;2.50;99.90
12682;DHT22;6405;59.208;18.216;2023-05-20T01:37:40;2.50;99.90
12682;DHT22;6405;59.208;18.216;2023-05-20T01:40:08;2.50;99.90
12682;DHT22;6405;59.208;18.216;2023-05-20T01:42:35;2.50;99.90
12682;DHT22;6405;59.208;18.216;2023-05-20T01:45:02;2.50;99.90
12682;DHT22;6405;59.208;18.216;2023-05-20T01:47:27;2.50;99.90
12682;DHT22;6405;59.208;18.216;2023-05-20T01:49:53;2.50;99.90
12682;DHT22;6405;59.208;18.216;2023-05-20T01:52:20;2.40;99.90
12682;DHT22;6405;59.208;18.216;2023-05-20T01:54:46;2.40;99.90
12682;DHT22;6405;59.208;18.216;2023-05-20T01:57:17;2.40;99.90
12682;DHT22;6405;59.208;18.216;2023-05-20T01:59:43;2.30;99.90
12682;DHT22;6405;59.208;18.216;2023-05-20T02:02:09;2.40;99.90
12682;DHT22;6405;59.208;18.216;2023-05-20T02:04:34;2.40;99.90
12682;DHT22;6405;59.208;18.216;2023-05-20T02:07:00;2.40;99.90
12682;DHT22;6405;59.208;18.216;2023-05-20T02:09:26;2.40;99.90
12682;DHT22;6405;59.208;18.216;2023-05-20T02:11:52;2.40;99.90
12682;DHT22;6405;59.208;18.216;2023-05-20T02:14:18;2.40;99.90
12682;DHT22;6405;59.208;18.216;2023-05-20T02:16:44;2.40;99.90
12682;DHT22;6405;59.208;18.216;2023-05-20T02:19:10;2.40;99.90
12682;DHT22;6405;59.208;18.216;2023-05-20T02:21:40;2.40;99.90
12682;DHT22;6405;59.208;18.216;2023-05-20T02:24:06;2.40;99.90
12682;DHT22;6405;59.208;18.216;2023-05-20T02:26:35;2.40;99.90
12682;DHT22;6405;59.208;18.216;2023-05-20T02:29:00;2.40;99.90
12682;DHT22;6405;59.208;18.216;2023-05-20T02:31:26;2.40;99.90
12682;DHT22;6405;59.208;18.216;2023-05-20T02:33:52;2.50;99.90
12682;DHT22;6405;59.208;18.216;2023-05-20T02:36:18;2.50;99.90
12682;DHT22;6405;59.208;18.216;2023-05-20T02:38:43;2.50;99.90
12682;DHT22;6405;59.208;18.216;2023-05-20T02:41:09;2.60;99.90
12682;DHT22;6405;59.208;18.216;2023-05-20T02:43:35;2.60;99.90
12682;DHT22;6405;59.208;18.216;2023-05-20T02:46:01;2.70;99.90
12682;DHT22;6405;59.208;18.216;2023-05-20T02:48:27;2.70;99.90
12682;DHT22;6405;59.208;18.216;2023-05-20T02:50:53;2.70;99.90
12682;DHT22;6405;59.208;18.216;2023-05-20T02:53:18;2.80;99.90
12682;DHT22;6405;59.208;18.216;2023-05-20T02:55:46;2.80;99.90
12682;DHT22;6405;59.208;18.216;2023-05-20T02:58:14;2.90;99.90
12682;DHT22;6405;59.208;18.216;2023-05-20T03:00:41;2.90;99.90
12682;DHT22;6405;59.208;18.216;2023-05-20T03:03:11;3.00;99.90
12682;DHT22;6405;59.208;18.216;2023-05-20T03:05:38;3.00;99.90
12682;DHT22;6405;59.208;18.216;2023-05-20T03:08:08;3.10;99.90
12682;DHT22;6405;59.208;18.216;2023-05-20T03:10:35;3.10;99.90
12682;DHT22;6405;59.208;18.216;2023-05-20T03:13:01;3.20;99.90
12682;DHT22;6405;59.208;18.216;2023-05-20T03:15:27;3.20;99.90
12682;DHT22;6405;59.208;18.216;2023-05-20T03:17:52;3.30;99.90
12682;DHT22;6405;59.208;18.216;2023-05-20T03:20:18;3.40;99.90
12682;DHT22;6405;59.208;18.216;2023-05-20T03:22:44;3.40;99.90
12682;DHT22;6405;59.208;18.216;2023-05-20T03:25:10;3.50;99.90
12682;DHT22;6405;59.208;18.216;2023-05-20T03:27:36;3.60;99.90
12682;DHT22;6405;59.208;18.216;2023-05-20T03:30:03;3.60;99.90
12682;DHT22;6405;59.208;18.216;2023-05-20T03:32:29;3.70;99.90
12682;DHT22;6405;59.208;18.216;2023-05-20T03:34:55;3.70;99.90
12682;DHT22;6405;59.208;18.216;2023-05-20T03:37:22;3.80;99.90
12682;DHT22;6405;59.208;18.216;2023-05-20T03:39:48;3.90;99.90
12682;DHT22;6405;59.208;18.216;2023-05-20T03:42:14;3.90;99.90
12682;DHT22;6405;59.208;18.216;2023-05-20T03:44:39;4.10;99.90
12682;DHT22;6405;59.208;18.216;2023-05-20T03:47:05;4.10;99.90
12682;DHT22;6405;59.208;18.216;2023-05-20T03:49:31;4.20;99.90
12682;DHT22;6405;59.208;18.216;2023-05-20T03:51:56;4.30;99.90
12682;DHT22;6405;59.208;18.216;2023-05-20T03:54:22;4.40;99.90
12682;DHT22;6405;59.208;18.216;2023-05-20T03:56:48;4.50;99.90
12682;DHT22;6405;59.208;18.216;2023-05-20T03:59:14;4.60;99.90
12682;DHT22;6405;59.208;18.216;2023-05-20T04:01:39;4.70;99.90
12682;DHT22;6405;59.208;18.216;2023-05-20T04:04:05;4.80;99.90
12682;DHT22;6405;59.208;18.216;2023-05-20T04:06:31;4.90;99.90
12682;DHT22;6405;59.208;18.216;2023-05-20T04:08:57;5.00;99.90
12682;DHT22;6405;59.208;18.216;2023-05-20T04:11:23;5.00;99.90
12682;DHT22;6405;59.208;18.216;2023-05-20T04:13:48;5.10;99.90
12682;DHT22;6405;59.208;18.216;2023-05-20T04:16:14;5.20;99.90
12682;DHT22;6405;59.208;18.216;2023-05-20T04:18:40;5.30;99.90
12682;DHT22;6405;59.208;18.216;2023-05-20T04:21:06;5.40;99.90
12682;DHT22;6405;59.208;18.216;2023-05-20T04:23:32;5.50;99.90
12682;DHT22;6405;59.208;18.216;2023-05-20T04:25:58;5.60;99.90
12682;DHT22;6405;59.208;18.216;2023-05-20T04:28:27;5.70;99.90
12682;DHT22;6405;59.208;18.216;2023-05-20T04:31:01;5.80;99.90
12682;DHT22;6405;59.208;18.216;2023-05-20T04:33:31;5.90;99.90
12682;DHT22;6405;59.208;18.216;2023-05-20T04:35:58;6.00;99.90
12682;DHT22;6405;59.208;18.216;2023-05-20T04:38:24;6.10;99.90
12682;DHT22;6405;59.208;18.216;2023-05-20T04:40:59;6.20;99.90
12682;DHT22;6405;59.208;18.216;2023-05-20T04:43:27;6.30;99.90
12682;DHT22;6405;59.208;18.216;2023-05-20T04:45:56;6.40;99.90
12682;DHT22;6405;59.208;18.216;2023-05-20T04:48:22;6.50;99.90
12682;DHT22;6405;59.208;18.216;2023-05-20T04:50:48;6.50;99.90
12682;DHT22;6405;59.208;18.216;2023-05-20T04:53:15;6.60;99.90
12682;DHT22;6405;59.208;18.216;2023-05-20T04:55:41;6.80;99.90
12682;DHT22;6405;59.208;18.216;2023-05-20T04:58:08;7.00;99.90
12682;DHT22;6405;59.208;18.216;2023-05-20T05:00:40;7.00;99.90
12682;DHT22;6405;59.208;18.216;2023-05-20T05:03:06;7.10;99.90
12682;DHT22;6405;59.208;18.216;2023-05-20T05:05:34;7.20;99.90
12682;DHT22;6405;59.208;18.216;2023-05-20T05:08:02;7.20;99.90
12682;DHT22;6405;59.208;18.216;2023-05-20T05:10:28;7.30;99.90
12682;DHT22;6405;59.208;18.216;2023-05-20T05:12:54;7.40;99.90
12682;DHT22;6405;59.208;18.216;2023-05-20T05:15:20;7.50;99.90
12682;DHT22;6405;59.208;18.216;2023-05-20T05:17:45;7.50;99.90
12682;DHT22;6405;59.208;18.216;2023-05-20T05:20:11;7.60;99.90
12682;DHT22;6405;59.208;18.216;2023-05-20T05:22:37;7.70;99.90
12682;DHT22;6405;59.208;18.216;2023-05-20T05:25:05;7.90;99.90
12682;DHT22;6405;59.208;18.216;2023-05-20T05:27:31;8.00;99.90
12682;DHT22;6405;59.208;18.216;2023-05-20T05:29:57;8.20;99.90
12682;DHT22;6405;59.208;18.216;2023-05-20T05:32:22;8.40;99.90
12682;DHT22;6405;59.208;18.216;2023-05-20T05:34:48;8.40;99.90
12682;DHT22;6405;59.208;18.216;2023-05-20T05:37:13;8.50;99.90
12682;DHT22;6405;59.208;18.216;2023-05-20T05:39:39;8.60;99.90
12682;DHT22;6405;59.208;18.216;2023-05-20T05:42:05;8.70;99.90
12682;DHT22;6405;59.208;18.216;2023-05-20T05:44:30;8.80;99.90
12682;DHT22;6405;59.208;18.216;2023-05-20T05:46:56;9.00;99.90
12682;DHT22;6405;59.208;18.216;2023-05-20T05:49:22;8.90;99.90
12682;DHT22;6405;59.208;18.216;2023-05-20T05:51:49;9.00;99.90
12682;DHT22;6405;59.208;18.216;2023-05-20T05:54:14;9.20;99.90
12682;DHT22;6405;59.208;18.216;2023-05-20T05:56:40;9.20;99.90
12682;DHT22;6405;59.208;18.216;2023-05-20T05:59:06;9.30;99.90
12682;DHT22;6405;59.208;18.216;2023-05-20T06:01:31;9.50;99.90
12682;DHT22;6405;59.208;18.216;2023-05-20T06:03:57;9.60;99.90
12682;DHT22;6405;59.208;18.216;2023-05-20T06:06:23;9.60;99.90
12682;DHT22;6405;59.208;18.216;2023-05-20T06:08:48;9.70;99.90
12682;DHT22;6405;59.208;18.216;2023-05-20T06:11:14;9.70;99.90
12682;DHT22;6405;59.208;18.216;2023-05-20T06:13:40;9.80;99.90
12682;DHT22;6405;59.208;18.216;2023-05-20T06:16:05;9.80;99.90
12682;DHT22;6405;59.208;18.216;2023-05-20T06:18:31;10.00;99.90
12682;DHT22;6405;59.208;18.216;2023-05-20T06:20:57;10.00;99.90
12682;DHT22;6405;59.208;18.216;2023-05-20T06:23:23;10.10;99.90
12682;DHT22;6405;59.208;18.216;2023-05-20T06:25:49;10.20;99.90
12682;DHT22;6405;59.208;18.216;2023-05-20T06:28:15;10.20;99.90
12682;DHT22;6405;59.208;18.216;2023-05-20T06:30:41;10.30;99.90
12682;DHT22;6405;59.208;18.216;2023-05-20T06:33:06;10.40;99.90
12682;DHT22;6405;59.208;18.216;2023-05-20T06:35:32;10.40;99.90
12682;DHT22;6405;59.208;18.216;2023-05-20T06:37:59;10.50;99.90
12682;DHT22;6405;59.208;18.216;2023-05-20T06:40:28;10.60;99.90
12682;DHT22;6405;59.208;18.216;2023-05-20T06:42:54;10.60;99.90
12682;DHT22;6405;59.208;18.216;2023-05-20T06:45:19;10.60;99.90
12682;DHT22;6405;59.208;18.216;2023-05-20T06:47:46;10.60;99.90
12682;DHT22;6405;59.208;18.216;2023-05-20T06:50:13;10.70;99.90
12682;DHT22;6405;59.208;18.216;2023-05-20T06:52:39;10.90;99.90
12682;DHT22;6405;59.208;18.216;2023-05-20T06:55:05;11.00;99.90
12682;DHT22;6405;59.208;18.216;2023-05-20T06:57:30;11.00;99.90
12682;DHT22;6405;59.208;18.216;2023-05-20T06:59:56;11.10;99.90
12682;DHT22;6405;59.208;18.216;2023-05-20T07:02:22;11.20;99.90
12682;DHT22;6405;59.208;18.216;2023-05-20T07:04:48;11.30;99.90
12682;DHT22;6405;59.208;18.216;2023-05-20T07:07:14;11.40;99.90
12682;DHT22;6405;59.208;18.216;2023-05-20T07:09:39;11.50;99.90
12682;DHT22;6405;59.208;18.216;2023-05-20T07:12:06;11.50;99.90
12682;DHT22;6405;59.208;18.216;2023-05-20T07:14:31;11.50;99.90
12682;DHT22;6405;59.208;18.216;2023-05-20T07:16:57;11.50;99.90
12682;DHT22;6405;59.208;18.216;2023-05-20T07:19:23;11.50;99.90
12682;DHT22;6405;59.208;18.216;2023-05-20T07:21:48;11.60;99.90
12682;DHT22;6405;59.208;18.216;2023-05-20T07:24:15;11.70;99.90
12682;DHT22;6405;59.208;18.216;2023-05-20T07:26:41;11.80;99.90
12682;DHT22;6405;59.208;18.216;2023-05-20T07:29:07;11.90;99.90
12682;DHT22;6405;59.208;18.216;2023-05-20T07:31:34;12.10;99.90
12682;DHT22;6405;59.208;18.216;2023-05-20T07:34:00;12.40;99.90
12682;DHT22;6405;59.208;18.216;2023-05-20T07:36:27;12.50;99.90
12682;DHT22;6405;59.208;18.216;2023-05-20T07:38:53;12.90;99.90
12682;DHT22;6405;59.208;18.216;2023-05-20T07:41:18;13.00;99.90
12682;DHT22;6405;59.208;18.216;2023-05-20T07:43:44;13.30;99.90
12682;DHT22;6405;59.208;18.216;2023-05-20T07:46:11;13.50;99.90
12682;DHT22;6405;59.208;18.216;2023-05-20T07:48:36;13.60;99.90
12682;DHT22;6405;59.208;18.216;2023-05-20T07:51:02;13.80;99.90
12682;DHT22;6405;59.208;18.216;2023-05-20T07:53:27;13.70;99.90
12682;DHT22;6405;59.208;18.216;2023-05-20T07:55:53;13.90;99.90
12682;DHT22;6405;59.208;18.216;2023-05-20T07:58:19;13.70;99.90
12682;DHT22;6405;59.208;18.216;2023-05-20T08:00:45;13.60;99.90
12682;DHT22;6405;59.208;18.216;2023-05-20T08:03:10;13.70;99.90
12682;DHT22;6405;59.208;18.216;2023-05-20T08:05:37;13.80;99.90
12682;DHT22;6405;59.208;18.216;2023-05-20T08:08:03;14.00;99.90
12682;DHT22;6405;59.208;18.216;2023-05-20T08:10:29;14.30;99.90
12682;DHT22;6405;59.208;18.216;2023-05-20T08:12:55;14.60;99.90
12682;DHT22;6405;59.208;18.216;2023-05-20T08:15:21;14.80;99.90
12682;DHT22;6405;59.208;18.216;2023-05-20T08:17:46;15.10;99.90
12682;DHT22;6405;59.208;18.216;2023-05-20T08:20:12;15.40;99.90
12682;DHT22;6405;59.208;18.216;2023-05-20T08:22:39;15.70;99.90
12682;DHT22;6405;59.208;18.216;2023-05-20T08:25:08;15.90;99.90
12682;DHT22;6405;59.208;18.216;2023-05-20T08:27:35;16.00;99.90
12682;DHT22;6405;59.208;18.216;2023-05-20T08:30:01;16.00;99.90
12682;DHT22;6405;59.208;18.216;2023-05-20T08:32:26;16.20;99.90
12682;DHT22;6405;59.208;18.216;2023-05-20T08:34:52;16.30;99.90
12682;DHT22;6405;59.208;18.216;2023-05-20T08:37:18;16.40;99.90
12682;DHT22;6405;59.208;18.216;2023-05-20T08:39:43;16.50;99.90
12682;DHT22;6405;59.208;18.216;2023-05-20T08:42:10;16.50;99.90
12682;DHT22;6405;59.208;18.216;2023-05-20T08:44:39;16.40;99.90
12682;DHT22;6405;59.208;18.216;2023-05-20T08:47:05;16.60;99.90
12682;DHT22;6405;59.208;18.216;2023-05-20T08:49:32;16.70;99.90
12682;DHT22;6405;59.208;18.216;2023-05-20T08:51:59;16.50;99.90
12682;DHT22;6405;59.208;18.216;2023-05-20T08:57:08;16.40;99.90
12682;DHT22;6405;59.208;18.216;2023-05-20T08:59:35;16.60;99.90
12682;DHT22;6405;59.208;18.216;2023-05-20T09:02:01;16.60;99.90
12682;DHT22;6405;59.208;18.216;2023-05-20T09:04:27;16.70;99.90
12682;DHT22;6405;59.208;18.216;2023-05-20T09:06:53;16.50;99.90
12682;DHT22;6405;59.208;18.216;2023-05-20T09:09:19;16.70;99.90
12682;DHT22;6405;59.208;18.216;2023-05-20T09:11:45;16.70;99.90
12682;DHT22;6405;59.208;18.216;2023-05-20T09:14:11;16.70;99.90
12682;DHT22;6405;59.208;18.216;2023-05-20T09:16:39;16.70;99.90
12682;DHT22;6405;59.208;18.216;2023-05-20T09:19:05;16.80;99.90
12682;DHT22;6405;59.208;18.216;2023-05-20T09:21:33;16.80;99.90
12682;DHT22;6405;59.208;18.216;2023-05-20T09:24:01;17.00;99.90
12682;DHT22;6405;59.208;18.216;2023-05-20T09:26:27;16.90;99.90
12682;DHT22;6405;59.208;18.216;2023-05-20T09:28:57;16.60;99.90
12682;DHT22;6405;59.208;18.216;2023-05-20T09:31:27;16.50;99.90
12682;DHT22;6405;59.208;18.216;2023-05-20T09:33:54;16.50;99.90
12682;DHT22;6405;59.208;18.216;2023-05-20T09:36:22;16.40;99.90
12682;DHT22;6405;59.208;18.216;2023-05-20T09:38:51;16.30;99.90
12682;DHT22;6405;59.208;18.216;2023-05-20T09:41:22;16.30;99.90
12682;DHT22;6405;59.208;18.216;2023-05-20T09:43:49;16.30;99.90
12682;DHT22;6405;59.208;18.216;2023-05-20T09:46:16;16.40;99.90
12682;DHT22;6405;59.208;18.216;2023-05-20T09:48:43;16.40;99.90
12682;DHT22;6405;59.208;18.216;2023-05-20T09:51:10;16.40;99.90
12682;DHT22;6405;59.208;18.216;2023-05-20T09:53:36;16.30;99.90
12682;DHT22;6405;59.208;18.216;2023-05-20T09:56:02;16.40;99.90
12682;DHT22;6405;59.208;18.216;2023-05-20T09:58:28;16.40;99.90
12682;DHT22;6405;59.208;18.216;2023-05-20T10:00:54;16.50;99.90
12682;DHT22;6405;59.208;18.216;2023-05-20T10:03:21;16.70;99.90
12682;DHT22;6405;59.208;18.216;2023-05-20T10:09:10;16.70;99.90
12682;DHT22;6405;59.208;18.216;2023-05-20T10:19:35;16.90;99.90
12682;DHT22;6405;59.208;18.216;2023-05-20T10:22:06;17.00;99.90
12682;DHT22;6405;59.208;18.216;2023-05-20T10:24:37;17.10;99.90
12682;DHT22;6405;59.208;18.216;2023-05-20T10:27:08;17.10;99.90
12682;DHT22;6405;59.208;18.216;2023-05-20T10:32:31;17.10;99.90
12682;DHT22;6405;59.208;18.216;2023-05-20T10:34:59;17.10;99.90
12682;DHT22;6405;59.208;18.216;2023-05-20T10:37:31;17.20;99.90
12682;DHT22;6405;59.208;18.216;2023-05-20T10:40:26;17.20;99.90
12682;DHT22;6405;59.208;18.216;2023-05-20T10:42:51;17.30;99.90
12682;DHT22;6405;59.208;18.216;2023-05-20T10:45:27;17.50;99.90
12682;DHT22;6405;59.208;18.216;2023-05-20T10:47:57;17.80;99.90
12682;DHT22;6405;59.208;18.216;2023-05-20T10:50:41;17.90;99.90
12682;DHT22;6405;59.208;18.216;2023-05-20T10:53:13;17.90;99.90
12682;DHT22;6405;59.208;18.216;2023-05-20T10:55:40;18.10;99.90
12682;DHT22;6405;59.208;18.216;2023-05-20T10:58:06;18.00;99.90
12682;DHT22;6405;59.208;18.216;2023-05-20T11:00:35;18.30;99.90
12682;DHT22;6405;59.208;18.216;2023-05-20T11:03:03;18.60;99.90
12682;DHT22;6405;59.208;18.216;2023-05-20T11:05:29;18.20;99.90
12682;DHT22;6405;59.208;18.216;2023-05-20T11:08:03;18.20;99.90
12682;DHT22;6405;59.208;18.216;2023-05-20T11:10:29;18.10;99.90
12682;DHT22;6405;59.208;18.216;2023-05-20T11:12:56;18.30;99.90
12682;DHT22;6405;59.208;18.216;2023-05-20T11:15:22;18.20;99.90
12682;DHT22;6405;59.208;18.216;2023-05-20T11:17:55;18.10;99.90
12682;DHT22;6405;59.208;18.216;2023-05-20T11:20:21;18.40;99.90
12682;DHT22;6405;59.208;18.216;2023-05-20T11:22:55;18.50;99.90
12682;DHT22;6405;59.208;18.216;2023-05-20T11:25:21;18.50;99.90
12682;DHT22;6405;59.208;18.216;2023-05-20T11:27:50;18.60;99.90
12682;DHT22;6405;59.208;18.216;2023-05-20T11:30:16;18.40;99.90
12682;DHT22;6405;59.208;18.216;2023-05-20T11:33:03;18.40;99.90
12682;DHT22;6405;59.208;18.216;2023-05-20T11:35:30;18.50;99.90
12682;DHT22;6405;59.208;18.216;2023-05-20T11:38:00;18.40;99.90
12682;DHT22;6405;59.208;18.216;2023-05-20T11:40:28;18.50;99.90
12682;DHT22;6405;59.208;18.216;2023-05-20T11:42:58;18.50;99.90
12682;DHT22;6405;59.208;18.216;2023-05-20T11:45:24;18.70;99.90
12682;DHT22;6405;59.208;18.216;2023-05-20T11:48:00;18.80;99.90
12682;DHT22;6405;59.208;18.216;2023-05-20T11:50:27;18.90;99.90
12682;DHT22;6405;59.208;18.216;2023-05-20T11:52:59;18.80;99.90
12682;DHT22;6405;59.208;18.216;2023-05-20T11:55:26;18.40;99.90
12682;DHT22;6405;59.208;18.216;2023-05-20T11:57:53;18.00;99.90
12682;DHT22;6405;59.208;18.216;2023-05-20T12:00:18;17.90;99.90
12682;DHT22;6405;59.208;18.216;2023-05-20T12:02:45;17.80;99.90
12682;DHT22;6405;59.208;18.216;2023-05-20T12:05:11;17.70;99.90
12682;DHT22;6405;59.208;18.216;2023-05-20T12:07:38;17.50;99.90
12682;DHT22;6405;59.208;18.216;2023-05-20T12:10:04;17.40;99.90
12682;DHT22;6405;59.208;18.216;2023-05-20T12:12:30;17.20;99.90
12682;DHT22;6405;59.208;18.216;2023-05-20T12:14:56;17.20;99.90
12682;DHT22;6405;59.208;18.216;2023-05-20T12:17:21;17.00;99.90
12682;DHT22;6405;59.208;18.216;2023-05-20T12:19:47;16.90;99.90
12682;DHT22;6405;59.208;18.216;2023-05-20T12:22:12;16.90;99.90
12682;DHT22;6405;59.208;18.216;2023-05-20T12:24:38;17.10;99.90
12682;DHT22;6405;59.208;18.216;2023-05-20T12:27:04;17.00;99.90
12682;DHT22;6405;59.208;18.216;2023-05-20T12:29:31;17.10;99.90
12682;DHT22;6405;59.208;18.216;2023-05-20T12:31:57;17.20;99.90
12682;DHT22;6405;59.208;18.216;2023-05-20T12:34:22;17.20;99.90
12682;DHT22;6405;59.208;18.216;2023-05-20T12:36:48;17.50;99.90
12682;DHT22;6405;59.208;18.216;2023-05-20T12:39:14;17.70;99.90
12682;DHT22;6405;59.208;18.216;2023-05-20T12:41:42;17.80;99.90
12682;DHT22;6405;59.208;18.216;2023-05-20T12:44:08;17.80;99.90
12682;DHT22;6405;59.208;18.216;2023-05-20T12:46:35;17.80;99.90
12682;DHT22;6405;59.208;18.216;2023-05-20T12:49:01;17.70;99.90
12682;DHT22;6405;59.208;18.216;2023-05-20T12:51:27;17.80;99.90
12682;DHT22;6405;59.208;18.216;2023-05-20T12:53:52;17.80;99.90
12682;DHT22;6405;59.208;18.216;2023-05-20T12:56:18;17.80;99.90
12682;DHT22;6405;59.208;18.216;2023-05-20T12:58:44;17.80;99.90
12682;DHT22;6405;59.208;18.216;2023-05-20T13:01:10;18.00;99.90
12682;DHT22;6405;59.208;18.216;2023-05-20T13:03:35;17.80;99.90
12682;DHT22;6405;59.208;18.216;2023-05-20T13:06:01;17.80;99.90
12682;DHT22;6405;59.208;18.216;2023-05-20T13:08:28;17.60;99.90
12682;DHT22;6405;59.208;18.216;2023-05-20T13:10:53;17.60;99.90
12682;DHT22;6405;59.208;18.216;2023-05-20T13:13:19;17.60;99.90
12682;DHT22;6405;59.208;18.216;2023-05-20T13:15:49;17.60;99.90
12682;DHT22;6405;59.208;18.216;2023-05-20T13:18:15;17.50;99.90
12682;DHT22;6405;59.208;18.216;2023-05-20T13:20:44;17.80;99.90
12682;DHT22;6405;59.208;18.216;2023-05-20T13:23:10;17.80;99.90
12682;DHT22;6405;59.208;18.216;2023-05-20T13:25:36;17.70;99.90
12682;DHT22;6405;59.208;18.216;2023-05-20T13:28:03;17.90;99.90
12682;DHT22;6405;59.208;18.216;2023-05-20T13:30:29;17.80;99.90
12682;DHT22;6405;59.208;18.216;2023-05-20T13:32:55;18.00;99.90
12682;DHT22;6405;59.208;18.216;2023-05-20T13:35:21;18.20;99.90
12682;DHT22;6405;59.208;18.216;2023-05-20T13:37:46;18.50;99.90
12682;DHT22;6405;59.208;18.216;2023-05-20T13:40:12;18.70;99.90
12682;DHT22;6405;59.208;18.216;2023-05-20T13:42:38;18.90;99.90
12682;DHT22;6405;59.208;18.216;2023-05-20T13:45:04;19.10;99.90
12682;DHT22;6405;59.208;18.216;2023-05-20T13:47:30;19.50;99.90
12682;DHT22;6405;59.208;18.216;2023-05-20T13:49:56;19.70;99.90
12682;DHT22;6405;59.208;18.216;2023-05-20T13:52:22;19.80;99.90
12682;DHT22;6405;59.208;18.216;2023-05-20T13:54:47;19.80;99.90
12682;DHT22;6405;59.208;18.216;2023-05-20T13:57:15;19.70;99.90
12682;DHT22;6405;59.208;18.216;2023-05-20T13:59:41;19.60;99.90
12682;DHT22;6405;59.208;18.216;2023-05-20T14:02:07;19.40;99.90
12682;DHT22;6405;59.208;18.216;2023-05-20T14:04:33;19.30;99.90
12682;DHT22;6405;59.208;18.216;2023-05-20T14:07:09;19.30;99.90
12682;DHT22;6405;59.208;18.216;2023-05-20T14:09:35;19.10;99.90
12682;DHT22;6405;59.208;18.216;2023-05-20T14:12:01;19.10;99.90
12682;DHT22;6405;59.208;18.216;2023-05-20T14:14:26;19.10;99.90
12682;DHT22;6405;59.208;18.216;2023-05-20T14:16:52;19.10;99.90
12682;DHT22;6405;59.208;18.216;2023-05-20T14:19:17;19.10;99.90
12682;DHT22;6405;59.208;18.216;2023-05-20T14:21:43;19.10;99.90
12682;DHT22;6405;59.208;18.216;2023-05-20T14:24:09;19.00;99.90
12682;DHT22;6405;59.208;18.216;2023-05-20T14:26:34;19.00;99.90
12682;DHT22;6405;59.208;18.216;2023-05-20T14:29:00;19.10;99.90
12682;DHT22;6405;59.208;18.216;2023-05-20T14:31:26;19.30;99.90
12682;DHT22;6405;59.208;18.216;2023-05-20T14:33:52;19.10;99.90
12682;DHT22;6405;59.208;18.216;2023-05-20T14:36:18;18.80;99.90
12682;DHT22;6405;59.208;18.216;2023-05-20T14:38:43;19.00;99.90
12682;DHT22;6405;59.208;18.216;2023-05-20T14:41:09;19.00;99.90
12682;DHT22;6405;59.208;18.216;2023-05-20T14:43:35;19.00;99.90
12682;DHT22;6405;59.208;18.216;2023-05-20T14:46:02;19.00;99.90
12682;DHT22;6405;59.208;18.216;2023-05-20T14:48:28;18.90;99.90
12682;DHT22;6405;59.208;18.216;2023-05-20T14:50:53;18.70;99.90
12682;DHT22;6405;59.208;18.216;2023-05-20T14:53:19;18.70;99.90
12682;DHT22;6405;59.208;18.216;2023-05-20T14:55:45;19.00;99.90
12682;DHT22;6405;59.208;18.216;2023-05-20T14:58:11;19.00;99.90
12682;DHT22;6405;59.208;18.216;2023-05-20T15:00:37;19.00;99.90
12682;DHT22;6405;59.208;18.216;2023-05-20T15:03:02;18.80;99.90
12682;DHT22;6405;59.208;18.216;2023-05-20T15:05:28;18.70;99.90
12682;DHT22;6405;59.208;18.216;2023-05-20T15:07:54;18.50;99.90
12682;DHT22;6405;59.208;18.216;2023-05-20T15:10:19;18.30;99.90
12682;DHT22;6405;59.208;18.216;2023-05-20T15:12:45;18.20;99.90
12682;DHT22;6405;59.208;18.216;2023-05-20T15:15:11;18.20;99.90
12682;DHT22;6405;59.208;18.216;2023-05-20T15:17:36;18.00;99.90
12682;DHT22;6405;59.208;18.216;2023-05-20T15:20:02;17.90;99.90
12682;DHT22;6405;59.208;18.216;2023-05-20T15:22:28;18.00;99.90
12682;DHT22;6405;59.208;18.216;2023-05-20T15:24:54;18.00;99.90
12682;DHT22;6405;59.208;18.216;2023-05-20T15:27:19;18.00;99.90
12682;DHT22;6405;59.208;18.216;2023-05-20T15:29:45;17.80;99.90
12682;DHT22;6405;59.208;18.216;2023-05-20T15:32:13;17.80;99.90
12682;DHT22;6405;59.208;18.216;2023-05-20T15:34:38;17.80;99.90
12682;DHT22;6405;59.208;18.216;2023-05-20T15:37:04;17.80;99.90
12682;DHT22;6405;59.208;18.216;2023-05-20T15:39:30;17.90;99.90
12682;DHT22;6405;59.208;18.216;2023-05-20T15:41:56;17.90;99.90
12682;DHT22;6405;59.208;18.216;2023-05-20T15:44:23;17.90;99.90
12682;DHT22;6405;59.208;18.216;2023-05-20T15:46:49;17.80;99.90
12682;DHT22;6405;59.208;18.216;2023-05-20T15:49:15;17.80;99.90
12682;DHT22;6405;59.208;18.216;2023-05-20T15:51:41;17.80;99.90